sensor_id;sensor_type;location;lat;lon;timestamp;temperature;humidity
30381;DHT22;17169;50.966;11.038;2023-01-29T00:00:53;-0.70;99.90
30381;DHT22;17169;50.966;11.038;2023-01-29T00:03:55;-0.70;99.90
30381;DHT22;17169;50.966;11.038;2023-01-29T00:06:58;-0.80;99.90
30381;DHT22;17169;50.966;11.038;2023-01-29T00:10:00;-0.90;99.90
30381;DHT22;17169;50.966;11.038;2023-01-29T00:13:04;-0.90;99.90
30381;DHT22;17169;50.966;11.038;2023-01-29T00:16:06;-0.90;99.90
30381;DHT22;17169;50.966;11.038;2023-01-29T00:19:09;-1.00;99.90
30381;DHT22;17169;50.966;11.038;2023-01-29T00:22:11;-1.00;99.90
30381;DHT22;17169;50.966;11.038;2023-01-29T00:25:14;-1.00;99.90
30381;DHT22;17169;50.966;11.038;2023-01-29T00:28:17;-1.00;99.90
30381;DHT22;17169;50.966;11.038;2023-01-29T00:31:21;-1.00;99.90
30381;DHT22;17169;50.966;11.038;2023-01-29T00:34:24;-1.10;99.90
30381;DHT22;17169;50.966;11.038;2023-01-29T00:37:26;-1.10;99.90
30381;DHT22;17169;50.966;11.038;2023-01-29T00:40:28;-1.20;99.90
30381;DHT22;17169;50.966;11.038;2023-01-29T00:43:52;-1.20;99.90
30381;DHT22;17169;50.966;11.038;2023-01-29T00:47:12;-1.30;99.90
30381;DHT22;17169;50.966;11.038;2023-01-29T00:50:29;-1.30;99.90
30381;DHT22;17169;50.966;11.038;2023-01-29T00:53:31;-1.40;99.90
30381;DHT22;17169;50.966;11.038;2023-01-29T00:56:35;-1.40;99.90
30381;DHT22;17169;50.966;11.038;2023-01-29T00:59:39;-1.40;99.90
30381;DHT22;17169;50.966;11.038;2023-01-29T01:02:42;-1.40;99.90
30381;DHT22;17169;50.966;11.038;2023-01-29T01:06:02;-1.40;99.90
30381;DHT22;17169;50.966;11.038;2023-01-29T01:09:06;-1.50;99.90
30381;DHT22;17169;50.966;11.038;2023-01-29T01:12:41;-1.50;99.90
30381;DHT22;17169;50.966;11.038;2023-01-29T01:15:44;-1.50;99.90
30381;DHT22;17169;50.966;11.038;2023-01-29T01:18:47;-1.50;99.90
30381;DHT22;17169;50.966;11.038;2023-01-29T01:21:49;-1.50;99.90
30381;DHT22;17169;50.966;11.038;2023-01-29T01:24:51;-1.60;99.90
30381;DHT22;17169;50.966;11.038;2023-01-29T01:27:55;-1.60;99.90
30381;DHT22;17169;50.966;11.038;2023-01-29T01:31:07;-1.60;99.90
30381;DHT22;17169;50.966;11.038;2023-01-29T01:34:09;-1.60;99.90
30381;DHT22;17169;50.966;11.038;2023-01-29T01:37:12;-1.60;99.90
30381;DHT22;17169;50.966;11.038;2023-01-29T01:40:17;-1.70;99.90
30381;DHT22;17169;50.966;11.038;2023-01-29T01:43:20;-1.70;99.90
30381;DHT22;17169;50.966;11.038;2023-01-29T01:46:24;-1.70;99.90
30381;DHT22;17169;50.966;11.038;2023-01-29T01:49:29;-1.80;99.90
30381;DHT22;17169;50.966;11.038;2023-01-29T01:52:32;-1.80;99.90
30381;DHT22;17169;50.966;11.038;2023-01-29T01:55:38;-1.80;99.90
30381;DHT22;17169;50.966;11.038;2023-01-29T01:58:44;-1.80;99.90
30381;DHT22;17169;50.966;11.038;2023-01-29T02:01:53;-1.80;99.90
30381;DHT22;17169;50.966;11.038;2023-01-29T02:04:55;-1.90;99.90
30381;DHT22;17169;50.966;11.038;2023-01-29T02:08:19;-1.90;99.90
30381;DHT22;17169;50.966;11.038;2023-01-29T02:11:43;-1.90;99.90
30381;DHT22;17169;50.966;11.038;2023-01-29T02:14:45;-1.90;99.90
30381;DHT22;17169;50.966;11.038;2023-01-29T02:17:49;-2.00;99.90
30381;DHT22;17169;50.966;11.038;2023-01-29T02:21:07;-2.00;99.90
30381;DHT22;17169;50.966;11.038;2023-01-29T02:24:35;-2.10;99.90
30381;DHT22;17169;50.966;11.038;2023-01-29T02:28:11;-2.10;99.90
30381;DHT22;17169;50.966;11.038;2023-01-29T02:31:23;-2.20;99.90
30381;DHT22;17169;50.966;11.038;2023-01-29T02:34:35;-2.20;99.90
30381;DHT22;17169;50.966;11.038;2023-01-29T02:38:11;-2.30;99.90
30381;DHT22;17169;50.966;11.038;2023-01-29T02:41:18;-2.20;99.90
30381;DHT22;17169;50.966;11.038;2023-01-29T02:44:31;-2.30;99.90
30381;DHT22;17169;50.966;11.038;2023-01-29T02:47:40;-2.30;99.90
30381;DHT22;17169;50.966;11.038;2023-01-29T02:50:48;-2.30;99.90
30381;DHT22;17169;50.966;11.038;2023-01-29T02:53:58;-2.40;99.90
30381;DHT22;17169;50.966;11.038;2023-01-29T02:57:08;-2.40;99.90
30381;DHT22;17169;50.966;11.038;2023-01-29T03:00:20;-2.40;99.90
30381;DHT22;17169;50.966;11.038;2023-01-29T03:03:25;-2.40;99.90
30381;DHT22;17169;50.966;11.038;2023-01-29T03:06:31;-2.30;99.90
30381;DHT22;17169;50.966;11.038;2023-01-29T03:09:38;-2.30;99.90
30381;DHT22;17169;50.966;11.038;2023-01-29T03:12:43;-2.30;99.90
30381;DHT22;17169;50.966;11.038;2023-01-29T03:15:55;-2.30;99.90
30381;DHT22;17169;50.966;11.038;2023-01-29T03:19:04;-2.30;99.90
30381;DHT22;17169;50.966;11.038;2023-01-29T03:22:10;-2.30;99.90
30381;DHT22;17169;50.966;11.038;2023-01-29T03:25:17;-2.30;99.90
30381;DHT22;17169;50.966;11.038;2023-01-29T03:28:40;-2.30;99.90
30381;DHT22;17169;50.966;11.038;2023-01-29T03:32:03;-2.30;99.90
30381;DHT22;17169;50.966;11.038;2023-01-29T03:35:09;-2.30;99.90
30381;DHT22;17169;50.966;11.038;2023-01-29T03:38:13;-2.30;99.90
30381;DHT22;17169;50.966;11.038;2023-01-29T03:41:22;-2.40;99.90
30381;DHT22;17169;50.966;11.038;2023-01-29T03:44:33;-2.40;99.90
30381;DHT22;17169;50.966;11.038;2023-01-29T03:47:43;-2.30;99.90
30381;DHT22;17169;50.966;11.038;2023-01-29T03:50:53;-2.30;99.90
30381;DHT22;17169;50.966;11.038;2023-01-29T03:54:02;-2.30;99.90
30381;DHT22;17169;50.966;11.038;2023-01-29T03:57:12;-2.30;99.90
30381;DHT22;17169;50.966;11.038;2023-01-29T04:00:18;-2.30;99.90
30381;DHT22;17169;50.966;11.038;2023-01-29T04:03:27;-2.30;99.90
30381;DHT22;17169;50.966;11.038;2023-01-29T04:06:35;-2.40;99.90
30381;DHT22;17169;50.966;11.038;2023-01-29T04:09:41;-2.40;99.90
30381;DHT22;17169;50.966;11.038;2023-01-29T04:12:46;-2.50;99.90
30381;DHT22;17169;50.966;11.038;2023-01-29T04:15:55;-2.50;99.90
30381;DHT22;17169;50.966;11.038;2023-01-29T04:18:59;-2.50;99.90
30381;DHT22;17169;50.966;11.038;2023-01-29T04:22:06;-2.50;99.90
30381;DHT22;17169;50.966;11.038;2023-01-29T04:25:15;-2.50;99.90
30381;DHT22;17169;50.966;11.038;2023-01-29T04:28:21;-2.50;99.90
30381;DHT22;17169;50.966;11.038;2023-01-29T04:31:31;-2.60;99.90
30381;DHT22;17169;50.966;11.038;2023-01-29T04:34:48;-2.60;99.90
30381;DHT22;17169;50.966;11.038;2023-01-29T04:37:56;-2.50;99.90
30381;DHT22;17169;50.966;11.038;2023-01-29T04:41:06;-2.50;99.90
30381;DHT22;17169;50.966;11.038;2023-01-29T04:44:15;-2.50;99.90
30381;DHT22;17169;50.966;11.038;2023-01-29T04:47:24;-2.50;99.90
30381;DHT22;17169;50.966;11.038;2023-01-29T04:50:36;-2.50;99.90
30381;DHT22;17169;50.966;11.038;2023-01-29T04:53:44;-2.60;99.90
30381;DHT22;17169;50.966;11.038;2023-01-29T04:56:52;-2.60;99.90
30381;DHT22;17169;50.966;11.038;2023-01-29T05:00:02;-2.60;99.90
30381;DHT22;17169;50.966;11.038;2023-01-29T05:03:05;-2.60;99.90
30381;DHT22;17169;50.966;11.038;2023-01-29T05:06:11;-2.60;99.90
30381;DHT22;17169;50.966;11.038;2023-01-29T05:09:15;-2.60;99.90
30381;DHT22;17169;50.966;11.038;2023-01-29T05:12:18;-2.60;99.90
30381;DHT22;17169;50.966;11.038;2023-01-29T05:15:24;-2.60;99.90
30381;DHT22;17169;50.966;11.038;2023-01-29T05:18:28;-2.60;99.90
30381;DHT22;17169;50.966;11.038;2023-01-29T05:21:32;-2.60;99.90
30381;DHT22;17169;50.966;11.038;2023-01-29T05:24:35;-2.50;99.90
30381;DHT22;17169;50.966;11.038;2023-01-29T05:27:38;-2.60;99.90
30381;DHT22;17169;50.966;11.038;2023-01-29T05:30:58;-2.50;99.90
30381;DHT22;17169;50.966;11.038;2023-01-29T05:34:00;-2.50;99.90
30381;DHT22;17169;50.966;11.038;2023-01-29T05:37:04;-2.50;99.90
30381;DHT22;17169;50.966;11.038;2023-01-29T05:40:08;-2.60;99.90
30381;DHT22;17169;50.966;11.038;2023-01-29T05:43:15;-2.60;99.90
30381;DHT22;17169;50.966;11.038;2023-01-29T05:46:17;-2.60;99.90
30381;DHT22;17169;50.966;11.038;2023-01-29T05:49:20;-2.50;99.90
30381;DHT22;17169;50.966;11.038;2023-01-29T05:52:24;-2.50;99.90
30381;DHT22;17169;50.966;11.038;2023-01-29T05:55:26;-2.50;99.90
30381;DHT22;17169;50.966;11.038;2023-01-29T05:58:29;-2.50;99.90
30381;DHT22;17169;50.966;11.038;2023-01-29T06:01:32;-2.40;99.90
30381;DHT22;17169;50.966;11.038;2023-01-29T06:04:35;-2.40;99.90
30381;DHT22;17169;50.966;11.038;2023-01-29T06:07:38;-2.40;99.90
30381;DHT22;17169;50.966;11.038;2023-01-29T06:10:45;-2.40;99.90
30381;DHT22;17169;50.966;11.038;2023-01-29T06:13:47;-2.50;99.90
30381;DHT22;17169;50.966;11.038;2023-01-29T06:16:49;-2.50;99.90
30381;DHT22;17169;50.966;11.038;2023-01-29T06:19:52;-2.50;99.90
30381;DHT22;17169;50.966;11.038;2023-01-29T06:22:55;-2.60;99.90
30381;DHT22;17169;50.966;11.038;2023-01-29T06:25:59;-2.60;99.90
30381;DHT22;17169;50.966;11.038;2023-01-29T06:29:01;-2.70;99.90
30381;DHT22;17169;50.966;11.038;2023-01-29T06:32:04;-2.70;99.90
30381;DHT22;17169;50.966;11.038;2023-01-29T06:35:07;-2.70;99.90
30381;DHT22;17169;50.966;11.038;2023-01-29T06:38:12;-2.70;99.90
30381;DHT22;17169;50.966;11.038;2023-01-29T06:41:16;-2.70;99.90
30381;DHT22;17169;50.966;11.038;2023-01-29T06:44:19;-2.80;99.90
30381;DHT22;17169;50.966;11.038;2023-01-29T06:47:21;-2.80;99.90
30381;DHT22;17169;50.966;11.038;2023-01-29T06:50:24;-2.80;99.90
30381;DHT22;17169;50.966;11.038;2023-01-29T06:53:27;-2.80;99.90
30381;DHT22;17169;50.966;11.038;2023-01-29T06:56:30;-2.90;99.90
30381;DHT22;17169;50.966;11.038;2023-01-29T06:59:32;-2.90;99.90
30381;DHT22;17169;50.966;11.038;2023-01-29T07:02:35;-2.90;99.90
30381;DHT22;17169;50.966;11.038;2023-01-29T07:05:38;-2.90;99.90
30381;DHT22;17169;50.966;11.038;2023-01-29T07:08:41;-2.80;99.90
30381;DHT22;17169;50.966;11.038;2023-01-29T07:11:44;-2.80;99.90
30381;DHT22;17169;50.966;11.038;2023-01-29T07:14:46;-2.80;99.90
30381;DHT22;17169;50.966;11.038;2023-01-29T07:17:56;-2.80;99.90
30381;DHT22;17169;50.966;11.038;2023-01-29T07:20:58;-2.80;99.90
30381;DHT22;17169;50.966;11.038;2023-01-29T07:24:06;-2.70;99.90
30381;DHT22;17169;50.966;11.038;2023-01-29T07:27:09;-2.60;99.90
30381;DHT22;17169;50.966;11.038;2023-01-29T07:30:12;-2.60;99.90
30381;DHT22;17169;50.966;11.038;2023-01-29T07:33:14;-2.50;99.90
30381;DHT22;17169;50.966;11.038;2023-01-29T07:36:17;-2.40;99.90
30381;DHT22;17169;50.966;11.038;2023-01-29T07:39:20;-2.30;99.90
30381;DHT22;17169;50.966;11.038;2023-01-29T07:42:23;-2.20;99.90
30381;DHT22;17169;50.966;11.038;2023-01-29T07:45:25;-2.10;99.90
30381;DHT22;17169;50.966;11.038;2023-01-29T07:48:28;-1.90;99.90
30381;DHT22;17169;50.966;11.038;2023-01-29T07:51:30;-1.80;99.90
30381;DHT22;17169;50.966;11.038;2023-01-29T07:54:34;-1.70;99.90
30381;DHT22;17169;50.966;11.038;2023-01-29T07:57:36;-1.60;99.90
30381;DHT22;17169;50.966;11.038;2023-01-29T08:00:39;-1.60;99.90
30381;DHT22;17169;50.966;11.038;2023-01-29T08:03:41;-1.50;99.90
30381;DHT22;17169;50.966;11.038;2023-01-29T08:06:44;-1.40;99.90
30381;DHT22;17169;50.966;11.038;2023-01-29T08:09:47;-1.30;99.90
30381;DHT22;17169;50.966;11.038;2023-01-29T08:12:53;-1.20;99.90
30381;DHT22;17169;50.966;11.038;2023-01-29T08:15:58;-1.20;99.90
30381;DHT22;17169;50.966;11.038;2023-01-29T08:19:02;-1.10;99.90
30381;DHT22;17169;50.966;11.038;2023-01-29T08:22:05;-1.10;99.90
30381;DHT22;17169;50.966;11.038;2023-01-29T08:25:09;-0.90;99.90
30381;DHT22;17169;50.966;11.038;2023-01-29T08:28:12;-0.70;99.90
30381;DHT22;17169;50.966;11.038;2023-01-29T08:31:14;-0.70;99.90
30381;DHT22;17169;50.966;11.038;2023-01-29T08:34:17;-0.70;99.90
30381;DHT22;17169;50.966;11.038;2023-01-29T08:37:19;-0.80;99.90
30381;DHT22;17169;50.966;11.038;2023-01-29T08:40:23;-0.70;99.90
30381;DHT22;17169;50.966;11.038;2023-01-29T08:43:26;-0.60;99.90
30381;DHT22;17169;50.966;11.038;2023-01-29T08:46:28;-0.60;99.90
30381;DHT22;17169;50.966;11.038;2023-01-29T08:49:31;-0.60;99.90
30381;DHT22;17169;50.966;11.038;2023-01-29T08:52:33;-0.60;99.90
30381;DHT22;17169;50.966;11.038;2023-01-29T08:55:38;-0.60;99.90
30381;DHT22;17169;50.966;11.038;2023-01-29T08:58:41;-0.70;99.90
30381;DHT22;17169;50.966;11.038;2023-01-29T09:01:43;-0.70;99.90
30381;DHT22;17169;50.966;11.038;2023-01-29T09:04:45;-0.70;99.90
30381;DHT22;17169;50.966;11.038;2023-01-29T09:07:48;-0.60;99.90
30381;DHT22;17169;50.966;11.038;2023-01-29T09:10:51;-0.60;99.90
30381;DHT22;17169;50.966;11.038;2023-01-29T09:13:54;-0.60;99.90
30381;DHT22;17169;50.966;11.038;2023-01-29T09:16:56;-0.60;99.90
30381;DHT22;17169;50.966;11.038;2023-01-29T09:19:58;-0.60;99.90
30381;DHT22;17169;50.966;11.038;2023-01-29T09:23:03;-0.60;99.90
30381;DHT22;17169;50.966;11.038;2023-01-29T09:26:07;-0.60;99.90
30381;DHT22;17169;50.966;11.038;2023-01-29T09:29:10;-0.60;99.90
30381;DHT22;17169;50.966;11.038;2023-01-29T09:32:12;-0.60;99.90
30381;DHT22;17169;50.966;11.038;2023-01-29T09:35:15;-0.60;99.90
30381;DHT22;17169;50.966;11.038;2023-01-29T09:38:17;-0.60;99.90
30381;DHT22;17169;50.966;11.038;2023-01-29T09:41:31;-0.60;99.90
30381;DHT22;17169;50.966;11.038;2023-01-29T09:44:48;-0.50;99.90
30381;DHT22;17169;50.966;11.038;2023-01-29T09:47:55;-0.60;99.90
30381;DHT22;17169;50.966;11.038;2023-01-29T09:51:03;-0.50;99.90
30381;DHT22;17169;50.966;11.038;2023-01-29T09:54:14;-0.50;99.90
30381;DHT22;17169;50.966;11.038;2023-01-29T09:57:24;-0.50;99.90
30381;DHT22;17169;50.966;11.038;2023-01-29T10:00:31;-0.30;99.90
30381;DHT22;17169;50.966;11.038;2023-01-29T10:03:47;-0.20;99.90
30381;DHT22;17169;50.966;11.038;2023-01-29T10:07:04;-0.10;99.90
30381;DHT22;17169;50.966;11.038;2023-01-29T10:10:20;0.00;99.90
30381;DHT22;17169;50.966;11.038;2023-01-29T10:13:31;0.00;99.90
30381;DHT22;17169;50.966;11.038;2023-01-29T10:16:48;0.10;99.90
30381;DHT22;17169;50.966;11.038;2023-01-29T10:20:13;0.10;99.90
30381;DHT22;17169;50.966;11.038;2023-01-29T10:23:22;0.20;99.90
30381;DHT22;17169;50.966;11.038;2023-01-29T10:26:27;0.20;99.90
30381;DHT22;17169;50.966;11.038;2023-01-29T10:29:33;0.10;99.90
30381;DHT22;17169;50.966;11.038;2023-01-29T10:32:36;0.30;99.90
30381;DHT22;17169;50.966;11.038;2023-01-29T10:35:41;0.30;99.90
30381;DHT22;17169;50.966;11.038;2023-01-29T10:38:45;0.40;99.90
30381;DHT22;17169;50.966;11.038;2023-01-29T10:42:01;0.40;99.90
30381;DHT22;17169;50.966;11.038;2023-01-29T10:45:17;0.40;99.90
30381;DHT22;17169;50.966;11.038;2023-01-29T10:48:38;0.50;99.90
30381;DHT22;17169;50.966;11.038;2023-01-29T10:51:55;0.60;99.90
30381;DHT22;17169;50.966;11.038;2023-01-29T10:55:13;0.70;99.90
30381;DHT22;17169;50.966;11.038;2023-01-29T10:58:24;0.80;99.90
30381;DHT22;17169;50.966;11.038;2023-01-29T11:01:29;0.80;99.90
30381;DHT22;17169;50.966;11.038;2023-01-29T11:04:33;0.80;99.90
30381;DHT22;17169;50.966;11.038;2023-01-29T11:07:36;0.90;99.90
30381;DHT22;17169;50.966;11.038;2023-01-29T11:10:43;1.00;99.90
30381;DHT22;17169;50.966;11.038;2023-01-29T11:13:53;1.10;99.90
30381;DHT22;17169;50.966;11.038;2023-01-29T11:16:58;1.10;99.90
30381;DHT22;17169;50.966;11.038;2023-01-29T11:20:00;1.20;99.90
30381;DHT22;17169;50.966;11.038;2023-01-29T11:23:03;1.10;99.90
30381;DHT22;17169;50.966;11.038;2023-01-29T11:26:07;1.20;99.90
30381;DHT22;17169;50.966;11.038;2023-01-29T11:29:32;1.20;99.90
30381;DHT22;17169;50.966;11.038;2023-01-29T11:32:36;1.30;99.90
30381;DHT22;17169;50.966;11.038;2023-01-29T11:35:39;1.30;99.90
30381;DHT22;17169;50.966;11.038;2023-01-29T11:38:41;1.30;99.90
30381;DHT22;17169;50.966;11.038;2023-01-29T11:41:47;1.30;99.90
30381;DHT22;17169;50.966;11.038;2023-01-29T11:44:49;1.20;99.90
30381;DHT22;17169;50.966;11.038;2023-01-29T11:47:55;1.20;99.90
30381;DHT22;17169;50.966;11.038;2023-01-29T11:50:59;1.30;99.90
30381;DHT22;17169;50.966;11.038;2023-01-29T11:54:03;1.30;99.90
30381;DHT22;17169;50.966;11.038;2023-01-29T12:00:39;1.30;99.90
30381;DHT22;17169;50.966;11.038;2023-01-29T12:03:47;1.40;99.90
30381;DHT22;17169;50.966;11.038;2023-01-29T12:06:52;1.40;99.90
30381;DHT22;17169;50.966;11.038;2023-01-29T12:09:56;1.40;99.90
30381;DHT22;17169;50.966;11.038;2023-01-29T12:13:17;1.30;99.90
30381;DHT22;17169;50.966;11.038;2023-01-29T12:16:25;1.40;99.90
30381;DHT22;17169;50.966;11.038;2023-01-29T12:19:34;1.30;99.90
30381;DHT22;17169;50.966;11.038;2023-01-29T12:22:41;1.40;99.90
30381;DHT22;17169;50.966;11.038;2023-01-29T12:25:52;1.40;99.90
30381;DHT22;17169;50.966;11.038;2023-01-29T12:29:14;1.40;99.90
30381;DHT22;17169;50.966;11.038;2023-01-29T12:32:25;1.40;99.90
30381;DHT22;17169;50.966;11.038;2023-01-29T12:35:32;1.30;99.90
30381;DHT22;17169;50.966;11.038;2023-01-29T12:38:36;1.30;99.90
30381;DHT22;17169;50.966;11.038;2023-01-29T12:41:44;1.30;99.90
30381;DHT22;17169;50.966;11.038;2023-01-29T12:44:50;1.30;99.90
30381;DHT22;17169;50.966;11.038;2023-01-29T12:47:56;1.30;99.90
30381;DHT22;17169;50.966;11.038;2023-01-29T12:51:05;1.30;99.90
30381;DHT22;17169;50.966;11.038;2023-01-29T12:54:11;1.40;99.90
30381;DHT22;17169;50.966;11.038;2023-01-29T12:57:20;1.50;99.90
30381;DHT22;17169;50.966;11.038;2023-01-29T13:00:26;1.50;99.90
30381;DHT22;17169;50.966;11.038;2023-01-29T13:03:33;1.50;99.90
30381;DHT22;17169;50.966;11.038;2023-01-29T13:06:41;1.50;99.90
30381;DHT22;17169;50.966;11.038;2023-01-29T13:09:49;1.50;99.90
30381;DHT22;17169;50.966;11.038;2023-01-29T13:12:57;1.60;99.90
30381;DHT22;17169;50.966;11.038;2023-01-29T13:16:04;1.70;99.90
30381;DHT22;17169;50.966;11.038;2023-01-29T13:19:16;1.70;99.90
30381;DHT22;17169;50.966;11.038;2023-01-29T13:22:24;1.70;99.90
30381;DHT22;17169;50.966;11.038;2023-01-29T13:25:27;1.80;99.90
30381;DHT22;17169;50.966;11.038;2023-01-29T13:28:30;1.80;99.90
30381;DHT22;17169;50.966;11.038;2023-01-29T13:31:34;1.90;99.90
30381;DHT22;17169;50.966;11.038;2023-01-29T13:34:43;2.00;99.90
30381;DHT22;17169;50.966;11.038;2023-01-29T13:37:49;2.10;99.90
30381;DHT22;17169;50.966;11.038;2023-01-29T13:40:53;2.20;99.90
30381;DHT22;17169;50.966;11.038;2023-01-29T13:43:57;2.20;99.90
30381;DHT22;17169;50.966;11.038;2023-01-29T13:47:02;2.20;99.90
30381;DHT22;17169;50.966;11.038;2023-01-29T13:50:07;2.20;99.90
30381;DHT22;17169;50.966;11.038;2023-01-29T13:53:20;2.20;99.90
30381;DHT22;17169;50.966;11.038;2023-01-29T13:56:45;2.20;99.90
30381;DHT22;17169;50.966;11.038;2023-01-29T13:59:52;2.30;99.90
30381;DHT22;17169;50.966;11.038;2023-01-29T14:06:46;2.20;99.90
30381;DHT22;17169;50.966;11.038;2023-01-29T14:10:15;2.20;99.90
30381;DHT22;17169;50.966;11.038;2023-01-29T14:13:33;2.20;99.90
30381;DHT22;17169;50.966;11.038;2023-01-29T14:16:36;2.20;99.90
30381;DHT22;17169;50.966;11.038;2023-01-29T14:19:45;2.20;99.90
30381;DHT22;17169;50.966;11.038;2023-01-29T14:22:52;2.20;99.90
30381;DHT22;17169;50.966;11.038;2023-01-29T14:30:00;1.90;99.90
30381;DHT22;17169;50.966;11.038;2023-01-29T14:33:03;1.90;99.90
30381;DHT22;17169;50.966;11.038;2023-01-29T14:36:11;1.90;99.90
30381;DHT22;17169;50.966;11.038;2023-01-29T14:39:24;1.80;99.90
30381;DHT22;17169;50.966;11.038;2023-01-29T14:42:32;1.80;99.90
30381;DHT22;17169;50.966;11.038;2023-01-29T14:45:37;1.90;99.90
30381;DHT22;17169;50.966;11.038;2023-01-29T14:48:46;1.80;99.90
30381;DHT22;17169;50.966;11.038;2023-01-29T14:51:49;1.80;99.90
30381;DHT22;17169;50.966;11.038;2023-01-29T14:54:52;1.80;99.90
30381;DHT22;17169;50.966;11.038;2023-01-29T14:57:58;1.80;99.90
30381;DHT22;17169;50.966;11.038;2023-01-29T15:01:04;1.70;99.90
30381;DHT22;17169;50.966;11.038;2023-01-29T15:04:14;1.70;99.90
30381;DHT22;17169;50.966;11.038;2023-01-29T15:07:26;1.60;99.90
30381;DHT22;17169;50.966;11.038;2023-01-29T15:10:37;1.60;99.90
30381;DHT22;17169;50.966;11.038;2023-01-29T15:13:46;1.50;99.90
30381;DHT22;17169;50.966;11.038;2023-01-29T15:16:59;1.50;99.90
30381;DHT22;17169;50.966;11.038;2023-01-29T15:20:25;1.40;99.90
30381;DHT22;17169;50.966;11.038;2023-01-29T15:23:29;1.40;99.90
30381;DHT22;17169;50.966;11.038;2023-01-29T15:26:32;1.30;99.90
30381;DHT22;17169;50.966;11.038;2023-01-29T15:29:37;1.20;99.90
30381;DHT22;17169;50.966;11.038;2023-01-29T15:32:41;1.20;99.90
30381;DHT22;17169;50.966;11.038;2023-01-29T15:35:44;1.10;99.90
30381;DHT22;17169;50.966;11.038;2023-01-29T15:38:48;1.00;99.90
30381;DHT22;17169;50.966;11.038;2023-01-29T15:42:12;0.90;99.90
30381;DHT22;17169;50.966;11.038;2023-01-29T15:45:24;0.90;99.90
30381;DHT22;17169;50.966;11.038;2023-01-29T15:48:31;0.90;99.90
30381;DHT22;17169;50.966;11.038;2023-01-29T15:51:37;0.80;99.90
30381;DHT22;17169;50.966;11.038;2023-01-29T15:54:40;0.80;99.90
30381;DHT22;17169;50.966;11.038;2023-01-29T15:57:42;0.80;99.90
30381;DHT22;17169;50.966;11.038;2023-01-29T16:00:51;0.90;99.90
30381;DHT22;17169;50.966;11.038;2023-01-29T16:03:56;0.80;99.90
30381;DHT22;17169;50.966;11.038;2023-01-29T16:07:01;0.90;99.90
30381;DHT22;17169;50.966;11.038;2023-01-29T16:10:05;0.90;99.90
30381;DHT22;17169;50.966;11.038;2023-01-29T16:13:15;0.80;99.90
30381;DHT22;17169;50.966;11.038;2023-01-29T16:16:23;0.90;99.90
30381;DHT22;17169;50.966;11.038;2023-01-29T16:19:28;0.80;99.90
30381;DHT22;17169;50.966;11.038;2023-01-29T16:22:33;0.80;99.90
30381;DHT22;17169;50.966;11.038;2023-01-29T16:25:37;0.80;99.90
30381;DHT22;17169;50.966;11.038;2023-01-29T16:28:40;0.70;99.90
30381;DHT22;17169;50.966;11.038;2023-01-29T16:31:43;0.60;99.90
30381;DHT22;17169;50.966;11.038;2023-01-29T16:34:48;0.60;99.90
30381;DHT22;17169;50.966;11.038;2023-01-29T16:37:54;0.50;99.90
30381;DHT22;17169;50.966;11.038;2023-01-29T16:41:13;0.40;99.90
30381;DHT22;17169;50.966;11.038;2023-01-29T16:44:30;0.40;99.90
30381;DHT22;17169;50.966;11.038;2023-01-29T16:47:34;0.30;99.90
30381;DHT22;17169;50.966;11.038;2023-01-29T16:50:39;0.30;99.90
30381;DHT22;17169;50.966;11.038;2023-01-29T16:53:52;0.20;99.90
30381;DHT22;17169;50.966;11.038;2023-01-29T16:56:58;0.20;99.90
30381;DHT22;17169;50.966;11.038;2023-01-29T17:00:06;0.10;99.90
30381;DHT22;17169;50.966;11.038;2023-01-29T17:03:11;0.10;99.90
30381;DHT22;17169;50.966;11.038;2023-01-29T17:06:20;0.10;99.90
30381;DHT22;17169;50.966;11.038;2023-01-29T17:09:26;0.10;99.90
30381;DHT22;17169;50.966;11.038;2023-01-29T17:12:30;0.10;99.90
30381;DHT22;17169;50.966;11.038;2023-01-29T17:15:36;0.00;99.90
30381;DHT22;17169;50.966;11.038;2023-01-29T17:18:44;0.00;99.90
30381;DHT22;17169;50.966;11.038;2023-01-29T17:21:47;0.00;99.90
30381;DHT22;17169;50.966;11.038;2023-01-29T17:24:50;0.00;99.90
30381;DHT22;17169;50.966;11.038;2023-01-29T17:27:52;0.00;99.90
30381;DHT22;17169;50.966;11.038;2023-01-29T17:30:55;0.00;99.90
30381;DHT22;17169;50.966;11.038;2023-01-29T17:33:57;0.00;99.90
30381;DHT22;17169;50.966;11.038;2023-01-29T17:37:01;0.00;99.90
30381;DHT22;17169;50.966;11.038;2023-01-29T17:40:14;0.00;99.90
30381;DHT22;17169;50.966;11.038;2023-01-29T17:43:18;0.00;99.90
30381;DHT22;17169;50.966;11.038;2023-01-29T17:46:20;-0.10;99.90
30381;DHT22;17169;50.966;11.038;2023-01-29T17:49:24;0.00;99.90
30381;DHT22;17169;50.966;11.038;2023-01-29T17:52:28;-0.10;99.90
30381;DHT22;17169;50.966;11.038;2023-01-29T17:55:32;-0.10;99.90
30381;DHT22;17169;50.966;11.038;2023-01-29T17:58:34;-0.10;99.90
30381;DHT22;17169;50.966;11.038;2023-01-29T18:01:36;-0.10;99.90
30381;DHT22;17169;50.966;11.038;2023-01-29T18:04:39;-0.10;99.90
30381;DHT22;17169;50.966;11.038;2023-01-29T18:07:44;-0.10;99.90
30381;DHT22;17169;50.966;11.038;2023-01-29T18:10:47;-0.20;99.90
30381;DHT22;17169;50.966;11.038;2023-01-29T18:13:49;-0.20;99.90
30381;DHT22;17169;50.966;11.038;2023-01-29T18:16:52;-0.30;99.90
30381;DHT22;17169;50.966;11.038;2023-01-29T18:19:54;-0.30;99.90
30381;DHT22;17169;50.966;11.038;2023-01-29T18:22:59;-0.30;99.90
30381;DHT22;17169;50.966;11.038;2023-01-29T18:26:04;-0.30;99.90
30381;DHT22;17169;50.966;11.038;2023-01-29T18:29:07;-0.40;99.90
30381;DHT22;17169;50.966;11.038;2023-01-29T18:32:10;-0.40;99.90
30381;DHT22;17169;50.966;11.038;2023-01-29T18:35:12;-0.40;99.90
30381;DHT22;17169;50.966;11.038;2023-01-29T18:38:16;-0.40;99.90
30381;DHT22;17169;50.966;11.038;2023-01-29T18:41:19;-0.50;99.90
30381;DHT22;17169;50.966;11.038;2023-01-29T18:44:21;-0.50;99.90
30381;DHT22;17169;50.966;11.038;2023-01-29T18:47:23;-0.50;99.90
30381;DHT22;17169;50.966;11.038;2023-01-29T18:50:26;-0.60;99.90
30381;DHT22;17169;50.966;11.038;2023-01-29T18:53:30;-0.60;99.90
30381;DHT22;17169;50.966;11.038;2023-01-29T18:56:33;-0.60;99.90
30381;DHT22;17169;50.966;11.038;2023-01-29T18:59:35;-0.60;99.90
30381;DHT22;17169;50.966;11.038;2023-01-29T19:02:38;-0.60;99.90
30381;DHT22;17169;50.966;11.038;2023-01-29T19:05:40;-0.70;99.90
30381;DHT22;17169;50.966;11.038;2023-01-29T19:08:44;-0.70;99.90
30381;DHT22;17169;50.966;11.038;2023-01-29T19:11:47;-0.80;99.90
30381;DHT22;17169;50.966;11.038;2023-01-29T19:14:49;-0.90;99.90
30381;DHT22;17169;50.966;11.038;2023-01-29T19:17:52;-0.90;99.90
30381;DHT22;17169;50.966;11.038;2023-01-29T19:20:54;-1.00;99.90
30381;DHT22;17169;50.966;11.038;2023-01-29T19:23:58;-1.00;99.90
30381;DHT22;17169;50.966;11.038;2023-01-29T19:27:00;-1.10;99.90
30381;DHT22;17169;50.966;11.038;2023-01-29T19:30:03;-1.10;99.90
30381;DHT22;17169;50.966;11.038;2023-01-29T19:33:07;-1.20;99.90
30381;DHT22;17169;50.966;11.038;2023-01-29T19:36:10;-1.30;99.90
30381;DHT22;17169;50.966;11.038;2023-01-29T19:39:14;-1.30;99.90